sensor_id;sensor_type;location;lat;lon;timestamp;pressure;altitude;pressure_sealevel;temperature;humidity
10510;BME280;5303;53.266;10.410;2023-04-02T00:00:31;101232.03;;;11.23;57.79
10510;BME280;5303;53.266;10.410;2023-04-02T00:03:04;101244.78;;;11.06;57.85
10510;BME280;5303;53.266;10.410;2023-04-02T00:05:42;101241.25;;;11.22;56.83
10510;BME280;5303;53.266;10.410;2023-04-02T00:08:36;101262.75;;;11.33;57.18
10510;BME280;5303;53.266;10.410;2023-04-02T00:11:05;101252.91;;;11.64;56.30
10510;BME280;5303;53.266;10.410;2023-04-02T00:13:44;101261.72;;;11.17;57.13
10510;BME280;5303;53.266;10.410;2023-04-02T00:16:22;101271.34;;;10.61;59.76
10510;BME280;5303;53.266;10.410;2023-04-02T00:18:51;101265.66;;;11.39;57.46
10510;BME280;5303;53.266;10.410;2023-04-02T00:21:18;101278.16;;;10.91;57.60
10510;BME280;5303;53.266;10.410;2023-04-02T00:23:45;101278.38;;;10.72;58.11
10510;BME280;5303;53.266;10.410;2023-04-02T00:28:49;101288.91;;;11.01;58.17
10510;BME280;5303;53.266;10.410;2023-04-02T00:31:16;101286.22;;;11.93;56.39
10510;BME280;5303;53.266;10.410;2023-04-02T00:33:42;101292.84;;;11.82;56.70
10510;BME280;5303;53.266;10.410;2023-04-02T00:36:08;101300.97;;;10.56;58.59
10510;BME280;5303;53.266;10.410;2023-04-02T00:38:34;101293.69;;;11.66;56.93
10510;BME280;5303;53.266;10.410;2023-04-02T00:41:02;101300.22;;;11.98;55.96
10510;BME280;5303;53.266;10.410;2023-04-02T00:43:31;101300.31;;;11.63;56.58
10510;BME280;5303;53.266;10.410;2023-04-02T00:46:11;101311.63;;;11.93;56.77
10510;BME280;5303;53.266;10.410;2023-04-02T00:49:30;101307.69;;;12.28;55.89
10510;BME280;5303;53.266;10.410;2023-04-02T00:51:39;101302.34;;;12.59;54.59
10510;BME280;5303;53.266;10.410;2023-04-02T00:54:09;101315.84;;;11.71;56.01
10510;BME280;5303;53.266;10.410;2023-04-02T00:56:45;101325.09;;;11.19;57.22
10510;BME280;5303;53.266;10.410;2023-04-02T01:04:42;101327.69;;;12.21;55.14
10510;BME280;5303;53.266;10.410;2023-04-02T01:07:15;101330.75;;;12.18;55.16
10510;BME280;5303;53.266;10.410;2023-04-02T01:09:51;101342.69;;;11.92;55.31
10510;BME280;5303;53.266;10.410;2023-04-02T01:12:29;101337.72;;;12.45;54.36
10510;BME280;5303;53.266;10.410;2023-04-02T01:15:24;101337.06;;;12.26;54.84
10510;BME280;5303;53.266;10.410;2023-04-02T01:18:01;101345.09;;;12.11;54.64
10510;BME280;5303;53.266;10.410;2023-04-02T01:23:25;101351.97;;;11.65;54.93
10510;BME280;5303;53.266;10.410;2023-04-02T01:26:18;101362.47;;;12.59;54.06
10510;BME280;5303;53.266;10.410;2023-04-02T01:29:09;101364.19;;;12.11;53.97
10510;BME280;5303;53.266;10.410;2023-04-02T01:31:37;101364.50;;;12.57;53.39
10510;BME280;5303;53.266;10.410;2023-04-02T01:34:06;101370.03;;;12.17;54.37
10510;BME280;5303;53.266;10.410;2023-04-02T01:37:00;101378.69;;;12.53;53.38
10510;BME280;5303;53.266;10.410;2023-04-02T01:45:20;101387.53;;;12.79;52.59
10510;BME280;5303;53.266;10.410;2023-04-02T01:47:47;101389.22;;;12.89;52.01
10510;BME280;5303;53.266;10.410;2023-04-02T01:52:46;101393.06;;;12.47;52.93
10510;BME280;5303;53.266;10.410;2023-04-02T01:55:17;101399.69;;;12.03;53.44
10510;BME280;5303;53.266;10.410;2023-04-02T01:57:47;101404.72;;;11.74;53.93
10510;BME280;5303;53.266;10.410;2023-04-02T02:00:15;101409.97;;;11.59;54.32
10510;BME280;5303;53.266;10.410;2023-04-02T02:02:42;101413.19;;;12.21;53.68
10510;BME280;5303;53.266;10.410;2023-04-02T02:05:15;101414.91;;;12.30;53.58
10510;BME280;5303;53.266;10.410;2023-04-02T02:07:41;101417.28;;;12.66;52.83
10510;BME280;5303;53.266;10.410;2023-04-02T02:10:14;101420.53;;;12.37;53.61
10510;BME280;5303;53.266;10.410;2023-04-02T02:12:42;101428.34;;;11.99;54.06
10510;BME280;5303;53.266;10.410;2023-04-02T02:15:16;101426.19;;;12.27;54.21
10510;BME280;5303;53.266;10.410;2023-04-02T02:17:41;101434.16;;;12.04;53.66
10510;BME280;5303;53.266;10.410;2023-04-02T02:20:07;101433.66;;;11.58;54.81
10510;BME280;5303;53.266;10.410;2023-04-02T02:22:36;101438.44;;;11.64;55.05
10510;BME280;5303;53.266;10.410;2023-04-02T02:25:05;101441.13;;;11.91;54.62
10510;BME280;5303;53.266;10.410;2023-04-02T02:27:54;101450.16;;;11.49;55.23
10510;BME280;5303;53.266;10.410;2023-04-02T02:30:32;101453.78;;;10.97;56.43
10510;BME280;5303;53.266;10.410;2023-04-02T02:33:04;101454.19;;;11.02;56.35
10510;BME280;5303;53.266;10.410;2023-04-02T02:35:45;101467.94;;;11.27;56.66
10510;BME280;5303;53.266;10.410;2023-04-02T02:38:35;101468.34;;;11.06;55.87
10510;BME280;5303;53.266;10.410;2023-04-02T02:41:07;101475.06;;;11.19;56.23
10510;BME280;5303;53.266;10.410;2023-04-02T02:43:38;101479.72;;;10.39;58.28
10510;BME280;5303;53.266;10.410;2023-04-02T02:46:09;101494.06;;;10.41;57.06
10510;BME280;5303;53.266;10.410;2023-04-02T02:48:39;101486.19;;;11.26;55.67
10510;BME280;5303;53.266;10.410;2023-04-02T02:51:16;101485.28;;;11.17;55.64
10510;BME280;5303;53.266;10.410;2023-04-02T02:53:49;101499.66;;;11.02;56.30
10510;BME280;5303;53.266;10.410;2023-04-02T02:56:17;101504.38;;;10.56;57.34
10510;BME280;5303;53.266;10.410;2023-04-02T02:58:45;101500.03;;;11.33;55.61
10510;BME280;5303;53.266;10.410;2023-04-02T03:01:13;101502.59;;;11.34;55.53
10510;BME280;5303;53.266;10.410;2023-04-02T03:03:38;101498.78;;;11.53;54.37
10510;BME280;5303;53.266;10.410;2023-04-02T03:06:07;101504.97;;;11.98;54.02
10510;BME280;5303;53.266;10.410;2023-04-02T03:08:38;101509.84;;;11.52;54.28
10510;BME280;5303;53.266;10.410;2023-04-02T03:11:11;101508.56;;;12.06;53.75
10510;BME280;5303;53.266;10.410;2023-04-02T03:13:42;101508.28;;;12.18;52.69
10510;BME280;5303;53.266;10.410;2023-04-02T03:16:19;101521.03;;;11.75;53.80
10510;BME280;5303;53.266;10.410;2023-04-02T03:21:38;101538.81;;;11.01;54.77
10510;BME280;5303;53.266;10.410;2023-04-02T03:24:26;101549.31;;;11.13;55.55
10510;BME280;5303;53.266;10.410;2023-04-02T03:27:02;101553.03;;;11.30;54.48
10510;BME280;5303;53.266;10.410;2023-04-02T03:29:33;101566.25;;;10.99;55.25
10510;BME280;5303;53.266;10.410;2023-04-02T03:32:06;101555.78;;;11.91;53.81
10510;BME280;5303;53.266;10.410;2023-04-02T03:34:46;101569.09;;;11.85;53.91
10510;BME280;5303;53.266;10.410;2023-04-02T03:37:23;101568.34;;;12.18;52.84
10510;BME280;5303;53.266;10.410;2023-04-02T03:40:03;101585.31;;;11.17;54.12
10510;BME280;5303;53.266;10.410;2023-04-02T03:42:48;101587.56;;;10.32;56.57
10510;BME280;5303;53.266;10.410;2023-04-02T03:45:21;101585.66;;;11.92;54.03
10510;BME280;5303;53.266;10.410;2023-04-02T03:48:10;101593.22;;;12.06;53.16
10510;BME280;5303;53.266;10.410;2023-04-02T03:50:43;101599.00;;;11.77;54.10
10510;BME280;5303;53.266;10.410;2023-04-02T03:53:12;101598.84;;;12.05;53.34
10510;BME280;5303;53.266;10.410;2023-04-02T03:55:39;101603.91;;;12.34;53.20
10510;BME280;5303;53.266;10.410;2023-04-02T04:00:52;101614.00;;;11.73;52.69
10510;BME280;5303;53.266;10.410;2023-04-02T04:05:54;101624.91;;;11.21;54.27
10510;BME280;5303;53.266;10.410;2023-04-02T04:08:25;101630.88;;;11.69;54.40
10510;BME280;5303;53.266;10.410;2023-04-02T04:10:55;101632.31;;;11.81;54.25
10510;BME280;5303;53.266;10.410;2023-04-02T04:13:30;101637.41;;;12.02;53.62
10510;BME280;5303;53.266;10.410;2023-04-02T04:16:03;101648.19;;;11.33;54.96
10510;BME280;5303;53.266;10.410;2023-04-02T04:21:25;101645.88;;;12.83;51.97
10510;BME280;5303;53.266;10.410;2023-04-02T04:23:56;101664.59;;;11.41;53.87
10510;BME280;5303;53.266;10.410;2023-04-02T04:26:43;101667.16;;;12.47;52.82
10510;BME280;5303;53.266;10.410;2023-04-02T04:31:49;101674.53;;;11.86;53.66
10510;BME280;5303;53.266;10.410;2023-04-02T04:34:25;101682.25;;;12.25;52.57
10510;BME280;5303;53.266;10.410;2023-04-02T04:36:58;101688.44;;;12.01;53.54
10510;BME280;5303;53.266;10.410;2023-04-02T04:39:46;101697.34;;;11.41;54.14
10510;BME280;5303;53.266;10.410;2023-04-02T04:42:21;101693.69;;;11.77;53.28
10510;BME280;5303;53.266;10.410;2023-04-02T04:44:59;101696.34;;;12.47;52.19
10510;BME280;5303;53.266;10.410;2023-04-02T04:47:38;101707.66;;;11.92;52.72
10510;BME280;5303;53.266;10.410;2023-04-02T04:53:30;101714.16;;;11.55;54.11
10510;BME280;5303;53.266;10.410;2023-04-02T04:55:58;101723.50;;;11.70;53.31
10510;BME280;5303;53.266;10.410;2023-04-02T04:58:40;101725.47;;;11.06;54.71
10510;BME280;5303;53.266;10.410;2023-04-02T05:01:13;101721.63;;;12.15;53.19
10510;BME280;5303;53.266;10.410;2023-04-02T05:08:46;101746.53;;;11.85;52.74
10510;BME280;5303;53.266;10.410;2023-04-02T05:11:37;101746.44;;;11.95;53.00
10510;BME280;5303;53.266;10.410;2023-04-02T05:14:11;101739.03;;;13.33;51.01
10510;BME280;5303;53.266;10.410;2023-04-02T05:16:45;101746.56;;;12.46;52.02
10510;BME280;5303;53.266;10.410;2023-04-02T05:21:50;101755.53;;;12.04;51.91
10510;BME280;5303;53.266;10.410;2023-04-02T05:26:58;101757.53;;;12.54;52.35
10510;BME280;5303;53.266;10.410;2023-04-02T05:29:30;101754.78;;;12.88;50.76
10510;BME280;5303;53.266;10.410;2023-04-02T05:32:04;101766.44;;;12.64;51.51
10510;BME280;5303;53.266;10.410;2023-04-02T05:34:35;101766.28;;;12.31;51.80
10510;BME280;5303;53.266;10.410;2023-04-02T05:37:03;101776.97;;;12.17;52.32
10510;BME280;5303;53.266;10.410;2023-04-02T05:39:29;101779.19;;;11.95;52.70
10510;BME280;5303;53.266;10.410;2023-04-02T05:42:00;101780.75;;;12.24;52.83
10510;BME280;5303;53.266;10.410;2023-04-02T05:44:30;101788.44;;;12.54;52.02
10510;BME280;5303;53.266;10.410;2023-04-02T05:46:58;101792.75;;;11.51;53.20
10510;BME280;5303;53.266;10.410;2023-04-02T05:52:05;101792.63;;;12.67;51.26
10510;BME280;5303;53.266;10.410;2023-04-02T05:54:42;101795.72;;;11.76;52.81
10510;BME280;5303;53.266;10.410;2023-04-02T05:57:30;101805.69;;;12.03;52.18
10510;BME280;5303;53.266;10.410;2023-04-02T05:59:59;101811.91;;;12.13;51.60
10510;BME280;5303;53.266;10.410;2023-04-02T06:02:30;101808.09;;;13.35;50.64
10510;BME280;5303;53.266;10.410;2023-04-02T06:05:18;101816.63;;;12.81;50.84
10510;BME280;5303;53.266;10.410;2023-04-02T06:07:53;101816.94;;;12.52;51.30
10510;BME280;5303;53.266;10.410;2023-04-02T06:10:27;101819.25;;;12.12;51.70
10510;BME280;5303;53.266;10.410;2023-04-02T06:12:56;101824.41;;;12.16;51.75
10510;BME280;5303;53.266;10.410;2023-04-02T06:15:26;101828.69;;;12.18;51.74
10510;BME280;5303;53.266;10.410;2023-04-02T06:17:57;101825.38;;;12.93;50.30
10510;BME280;5303;53.266;10.410;2023-04-02T06:20:24;101841.44;;;11.92;51.39
10510;BME280;5303;53.266;10.410;2023-04-02T06:22:59;101843.72;;;12.74;51.03
10510;BME280;5303;53.266;10.410;2023-04-02T06:25:33;101846.84;;;12.79;49.39
10510;BME280;5303;53.266;10.410;2023-04-02T06:28:00;101855.44;;;12.58;50.47
10510;BME280;5303;53.266;10.410;2023-04-02T06:30:31;101853.34;;;12.78;49.35
10510;BME280;5303;53.266;10.410;2023-04-02T06:32:57;101849.00;;;13.02;49.74
10510;BME280;5303;53.266;10.410;2023-04-02T06:35:23;101858.03;;;12.94;49.35
10510;BME280;5303;53.266;10.410;2023-04-02T06:37:51;101867.34;;;12.83;49.54
10510;BME280;5303;53.266;10.410;2023-04-02T06:42:59;101876.28;;;12.86;48.30
10510;BME280;5303;53.266;10.410;2023-04-02T06:45:33;101878.69;;;12.89;49.18
10510;BME280;5303;53.266;10.410;2023-04-02T06:48:00;101879.94;;;13.02;49.46
10510;BME280;5303;53.266;10.410;2023-04-02T06:50:53;101889.81;;;12.95;48.17
10510;BME280;5303;53.266;10.410;2023-04-02T06:53:32;101897.88;;;12.45;48.58
10510;BME280;5303;53.266;10.410;2023-04-02T06:56:18;101900.69;;;13.13;47.80
10510;BME280;5303;53.266;10.410;2023-04-02T06:58:46;101887.47;;;14.26;46.66
10510;BME280;5303;53.266;10.410;2023-04-02T07:01:21;101905.97;;;13.07;47.36
10510;BME280;5303;53.266;10.410;2023-04-02T07:03:48;101902.19;;;14.25;46.85
10510;BME280;5303;53.266;10.410;2023-04-02T07:06:18;101907.75;;;13.66;47.29
10510;BME280;5303;53.266;10.410;2023-04-02T07:08:44;101909.03;;;14.37;46.15
10510;BME280;5303;53.266;10.410;2023-04-02T07:11:13;101928.38;;;13.36;47.09
10510;BME280;5303;53.266;10.410;2023-04-02T07:13:39;101940.19;;;13.45;46.45
10510;BME280;5303;53.266;10.410;2023-04-02T07:16:05;101926.75;;;12.99;47.82
10510;BME280;5303;53.266;10.410;2023-04-02T07:18:32;101937.44;;;13.11;47.46
10510;BME280;5303;53.266;10.410;2023-04-02T07:20:58;101940.69;;;13.40;47.40
10510;BME280;5303;53.266;10.410;2023-04-02T07:23:24;101935.44;;;13.21;48.12
10510;BME280;5303;53.266;10.410;2023-04-02T07:25:51;101935.94;;;12.90;47.43
10510;BME280;5303;53.266;10.410;2023-04-02T07:28:17;101939.94;;;12.52;48.32
10510;BME280;5303;53.266;10.410;2023-04-02T07:30:43;101945.84;;;13.17;47.29
10510;BME280;5303;53.266;10.410;2023-04-02T07:33:17;101945.94;;;13.76;46.61
10510;BME280;5303;53.266;10.410;2023-04-02T07:35:43;101939.69;;;14.25;45.84
10510;BME280;5303;53.266;10.410;2023-04-02T07:38:09;101946.00;;;14.09;45.87
10510;BME280;5303;53.266;10.410;2023-04-02T07:40:35;101958.88;;;13.58;47.08
10510;BME280;5303;53.266;10.410;2023-04-02T07:43:00;101969.81;;;13.23;46.72
10510;BME280;5303;53.266;10.410;2023-04-02T07:45:26;101967.22;;;13.90;47.46
10510;BME280;5303;53.266;10.410;2023-04-02T07:47:52;101971.69;;;13.49;46.22
10510;BME280;5303;53.266;10.410;2023-04-02T07:50:17;101965.22;;;14.25;46.92
10510;BME280;5303;53.266;10.410;2023-04-02T07:52:43;101968.03;;;14.74;45.92
10510;BME280;5303;53.266;10.410;2023-04-02T07:55:09;101982.03;;;14.47;45.28
10510;BME280;5303;53.266;10.410;2023-04-02T07:57:51;101977.59;;;14.54;46.24
10510;BME280;5303;53.266;10.410;2023-04-02T08:00:17;102005.59;;;13.56;45.25
10510;BME280;5303;53.266;10.410;2023-04-02T08:02:43;102008.00;;;13.59;45.90
10510;BME280;5303;53.266;10.410;2023-04-02T08:05:09;102008.00;;;13.93;45.64
10510;BME280;5303;53.266;10.410;2023-04-02T08:07:35;102018.16;;;13.33;45.85
10510;BME280;5303;53.266;10.410;2023-04-02T08:10:02;102006.72;;;14.47;45.09
10510;BME280;5303;53.266;10.410;2023-04-02T08:12:27;102011.13;;;14.31;45.49
10510;BME280;5303;53.266;10.410;2023-04-02T08:14:52;102012.59;;;14.68;45.63
10510;BME280;5303;53.266;10.410;2023-04-02T08:17:18;102006.72;;;14.47;45.20
10510;BME280;5303;53.266;10.410;2023-04-02T08:19:43;102015.28;;;15.17;44.82
10510;BME280;5303;53.266;10.410;2023-04-02T08:22:09;102011.56;;;14.94;44.71
10510;BME280;5303;53.266;10.410;2023-04-02T08:24:35;102026.41;;;14.50;44.39
10510;BME280;5303;53.266;10.410;2023-04-02T08:27:00;102020.88;;;15.40;43.98
10510;BME280;5303;53.266;10.410;2023-04-02T08:29:26;102019.09;;;15.80;42.96
10510;BME280;5303;53.266;10.410;2023-04-02T08:31:57;102028.69;;;15.04;43.87
10510;BME280;5303;53.266;10.410;2023-04-02T08:34:23;102024.38;;;15.81;43.29
10510;BME280;5303;53.266;10.410;2023-04-02T08:36:48;102017.84;;;16.22;42.47
10510;BME280;5303;53.266;10.410;2023-04-02T08:39:13;102025.94;;;15.84;41.65
10510;BME280;5303;53.266;10.410;2023-04-02T08:41:57;102043.31;;;15.60;42.48
10510;BME280;5303;53.266;10.410;2023-04-02T08:47:16;102057.16;;;14.11;43.29
10510;BME280;5303;53.266;10.410;2023-04-02T08:49:59;102058.53;;;14.74;43.14
10510;BME280;5303;53.266;10.410;2023-04-02T08:52:29;102064.50;;;14.03;43.62
10510;BME280;5303;53.266;10.410;2023-04-02T08:54:55;102061.00;;;14.35;44.13
10510;BME280;5303;53.266;10.410;2023-04-02T08:57:43;102073.34;;;13.88;44.62
10510;BME280;5303;53.266;10.410;2023-04-02T09:02:55;102074.81;;;14.92;43.42
10510;BME280;5303;53.266;10.410;2023-04-02T09:05:35;102073.97;;;14.83;43.70
10510;BME280;5303;53.266;10.410;2023-04-02T09:08:02;102078.75;;;14.73;42.42
10510;BME280;5303;53.266;10.410;2023-04-02T09:10:38;102074.69;;;15.90;42.40
10510;BME280;5303;53.266;10.410;2023-04-02T09:13:15;102087.47;;;15.34;41.76
10510;BME280;5303;53.266;10.410;2023-04-02T09:15:42;102101.94;;;15.03;41.80
10510;BME280;5303;53.266;10.410;2023-04-02T09:18:16;102106.03;;;13.90;43.08
10510;BME280;5303;53.266;10.410;2023-04-02T09:20:43;102104.25;;;14.57;41.83
10510;BME280;5303;53.266;10.410;2023-04-02T09:23:16;102114.56;;;14.80;42.07
10510;BME280;5303;53.266;10.410;2023-04-02T09:25:45;102114.44;;;13.88;43.64
10510;BME280;5303;53.266;10.410;2023-04-02T09:28:11;102109.84;;;14.48;43.72
10510;BME280;5303;53.266;10.410;2023-04-02T09:31:00;102109.47;;;15.09;42.58
10510;BME280;5303;53.266;10.410;2023-04-02T09:33:45;102117.88;;;13.90;43.17
10510;BME280;5303;53.266;10.410;2023-04-02T09:36:39;102116.09;;;14.66;42.81
10510;BME280;5303;53.266;10.410;2023-04-02T09:39:16;102110.91;;;15.94;42.20
10510;BME280;5303;53.266;10.410;2023-04-02T09:41:42;102105.63;;;16.86;40.66
10510;BME280;5303;53.266;10.410;2023-04-02T09:44:19;102112.97;;;16.62;39.40
10510;BME280;5303;53.266;10.410;2023-04-02T09:46:51;102122.13;;;15.51;40.92
10510;BME280;5303;53.266;10.410;2023-04-02T09:49:20;102129.53;;;15.43;41.04
10510;BME280;5303;53.266;10.410;2023-04-02T09:52:05;102146.16;;;14.84;40.54
10510;BME280;5303;53.266;10.410;2023-04-02T09:54:31;102145.66;;;15.46;40.16
10510;BME280;5303;53.266;10.410;2023-04-02T09:56:59;102145.47;;;15.47;40.92
10510;BME280;5303;53.266;10.410;2023-04-02T09:59:25;102140.03;;;16.11;40.01
10510;BME280;5303;53.266;10.410;2023-04-02T10:04:40;102147.91;;;15.67;41.02
10510;BME280;5303;53.266;10.410;2023-04-02T10:10:05;102146.22;;;16.84;41.01
10510;BME280;5303;53.266;10.410;2023-04-02T10:12:42;102156.44;;;15.55;40.87
10510;BME280;5303;53.266;10.410;2023-04-02T10:15:20;102173.06;;;14.80;41.25
10510;BME280;5303;53.266;10.410;2023-04-02T10:17:56;102162.97;;;15.13;40.49
10510;BME280;5303;53.266;10.410;2023-04-02T10:20:26;102164.88;;;15.54;39.97
10510;BME280;5303;53.266;10.410;2023-04-02T10:22:53;102173.19;;;14.62;40.32
10510;BME280;5303;53.266;10.410;2023-04-02T10:25:20;102178.25;;;14.49;40.40
10510;BME280;5303;53.266;10.410;2023-04-02T10:28:01;102177.31;;;14.32;39.57
10510;BME280;5303;53.266;10.410;2023-04-02T10:30:49;102178.06;;;14.42;40.17
10510;BME280;5303;53.266;10.410;2023-04-02T10:33:17;102189.69;;;14.36;40.64
10510;BME280;5303;53.266;10.410;2023-04-02T10:36:10;102191.81;;;15.26;39.39
10510;BME280;5303;53.266;10.410;2023-04-02T10:38:53;102179.03;;;16.15;38.86
10510;BME280;5303;53.266;10.410;2023-04-02T10:41:44;102180.75;;;17.17;39.22
10510;BME280;5303;53.266;10.410;2023-04-02T10:49:36;102188.84;;;16.09;37.80
10510;BME280;5303;53.266;10.410;2023-04-02T10:53:05;102189.47;;;16.67;38.22
10510;BME280;5303;53.266;10.410;2023-04-02T10:55:13;102187.16;;;16.00;38.31
10510;BME280;5303;53.266;10.410;2023-04-02T10:57:42;102192.28;;;16.03;39.10
10510;BME280;5303;53.266;10.410;2023-04-02T11:02:51;102189.94;;;17.70;36.13
10510;BME280;5303;53.266;10.410;2023-04-02T11:08:01;102214.13;;;15.88;37.03
10510;BME280;5303;53.266;10.410;2023-04-02T11:10:32;102215.88;;;16.84;37.40
10510;BME280;5303;53.266;10.410;2023-04-02T11:13:24;102213.53;;;16.65;35.76
10510;BME280;5303;53.266;10.410;2023-04-02T11:15:47;102238.47;;;15.34;37.77
10510;BME280;5303;53.266;10.410;2023-04-02T11:18:39;102235.59;;;15.52;37.38
10510;BME280;5303;53.266;10.410;2023-04-02T11:21:06;102234.72;;;15.35;37.00
10510;BME280;5303;53.266;10.410;2023-04-02T11:24:01;102228.47;;;16.23;36.71
10510;BME280;5303;53.266;10.410;2023-04-02T11:26:38;102235.69;;;16.24;37.17
10510;BME280;5303;53.266;10.410;2023-04-02T11:29:15;102238.78;;;16.68;36.25
10510;BME280;5303;53.266;10.410;2023-04-02T11:31:43;102237.31;;;16.49;35.13
10510;BME280;5303;53.266;10.410;2023-04-02T11:34:59;102242.81;;;16.97;35.51
10510;BME280;5303;53.266;10.410;2023-04-02T11:37:01;102230.94;;;17.28;35.20
10510;BME280;5303;53.266;10.410;2023-04-02T11:39:52;102237.25;;;16.82;34.75
10510;BME280;5303;53.266;10.410;2023-04-02T11:42:24;102226.84;;;17.84;36.93
10510;BME280;5303;53.266;10.410;2023-04-02T11:44:51;102235.69;;;17.80;34.78
10510;BME280;5303;53.266;10.410;2023-04-02T11:47:23;102243.94;;;16.24;37.17
10510;BME280;5303;53.266;10.410;2023-04-02T11:52:33;102255.31;;;16.68;37.17
10510;BME280;5303;53.266;10.410;2023-04-02T11:55:26;102254.06;;;16.87;37.45
10510;BME280;5303;53.266;10.410;2023-04-02T12:01:01;102266.81;;;15.43;37.16
10510;BME280;5303;53.266;10.410;2023-04-02T12:12:26;102269.72;;;16.31;36.90
10510;BME280;5303;53.266;10.410;2023-04-02T12:14:54;102275.72;;;16.26;36.29
10510;BME280;5303;53.266;10.410;2023-04-02T12:18:01;102271.19;;;16.58;35.18
10510;BME280;5303;53.266;10.410;2023-04-02T12:20:28;102266.09;;;16.86;36.12
10510;BME280;5303;53.266;10.410;2023-04-02T12:22:55;102283.31;;;16.16;36.82
10510;BME280;5303;53.266;10.410;2023-04-02T12:28:27;102293.22;;;16.34;36.72
10510;BME280;5303;53.266;10.410;2023-04-02T12:31:14;102304.59;;;15.57;35.74
10510;BME280;5303;53.266;10.410;2023-04-02T12:33:43;102302.53;;;15.59;35.94
10510;BME280;5303;53.266;10.410;2023-04-02T12:38:52;102296.63;;;16.52;34.94
10510;BME280;5303;53.266;10.410;2023-04-02T12:41:21;102299.84;;;16.00;35.19
10510;BME280;5303;53.266;10.410;2023-04-02T12:43:56;102278.38;;;17.07;33.48
10510;BME280;5303;53.266;10.410;2023-04-02T12:46:22;102273.72;;;17.07;33.75
10510;BME280;5303;53.266;10.410;2023-04-02T12:48:50;102307.13;;;16.40;34.81
10510;BME280;5303;53.266;10.410;2023-04-02T12:51:16;102316.31;;;15.75;38.40
10510;BME280;5303;53.266;10.410;2023-04-02T12:53:48;102321.28;;;16.37;38.79
10510;BME280;5303;53.266;10.410;2023-04-02T12:56:22;102321.47;;;15.87;39.05
10510;BME280;5303;53.266;10.410;2023-04-02T12:58:52;102308.06;;;16.24;38.91
10510;BME280;5303;53.266;10.410;2023-04-02T13:01:20;102307.09;;;17.43;37.88
10510;BME280;5303;53.266;10.410;2023-04-02T13:04:05;102313.69;;;16.47;37.70
10510;BME280;5303;53.266;10.410;2023-04-02T13:06:32;102328.34;;;15.99;38.33
10510;BME280;5303;53.266;10.410;2023-04-02T13:08:59;102306.03;;;16.66;37.53
10510;BME280;5303;53.266;10.410;2023-04-02T13:11:36;102315.94;;;15.54;38.31
10510;BME280;5303;53.266;10.410;2023-04-02T13:14:03;102304.03;;;16.51;37.84
10510;BME280;5303;53.266;10.410;2023-04-02T13:16:35;102313.50;;;17.05;37.35
10510;BME280;5303;53.266;10.410;2023-04-02T13:21:44;102326.19;;;15.44;38.03
10510;BME280;5303;53.266;10.410;2023-04-02T13:24:30;102318.19;;;16.16;37.16
10510;BME280;5303;53.266;10.410;2023-04-02T13:26:58;102310.19;;;17.40;36.67
10510;BME280;5303;53.266;10.410;2023-04-02T13:29:30;102295.13;;;17.51;37.16
10510;BME280;5303;53.266;10.410;2023-04-02T13:32:02;102318.34;;;16.47;38.63
10510;BME280;5303;53.266;10.410;2023-04-02T13:34:28;102314.28;;;16.66;38.24
10510;BME280;5303;53.266;10.410;2023-04-02T13:36:55;102324.88;;;16.29;38.54
10510;BME280;5303;53.266;10.410;2023-04-02T13:39:21;102332.13;;;16.06;38.83
10510;BME280;5303;53.266;10.410;2023-04-02T13:41:54;102323.50;;;16.17;39.29
10510;BME280;5303;53.266;10.410;2023-04-02T13:44:31;102323.81;;;16.47;39.52
10510;BME280;5303;53.266;10.410;2023-04-02T13:46:58;102320.69;;;16.66;39.52
10510;BME280;5303;53.266;10.410;2023-04-02T13:49:26;102319.94;;;16.72;40.20
10510;BME280;5303;53.266;10.410;2023-04-02T13:51:56;102339.69;;;15.88;39.92
10510;BME280;5303;53.266;10.410;2023-04-02T13:54:26;102339.63;;;16.45;38.63
10510;BME280;5303;53.266;10.410;2023-04-02T13:56:54;102330.19;;;16.47;38.76
10510;BME280;5303;53.266;10.410;2023-04-02T13:59:20;102327.16;;;16.90;38.74
10510;BME280;5303;53.266;10.410;2023-04-02T14:01:46;102348.25;;;16.42;39.98
10510;BME280;5303;53.266;10.410;2023-04-02T14:04:16;102364.00;;;15.66;40.01
10510;BME280;5303;53.266;10.410;2023-04-02T14:10:19;102357.19;;;16.27;40.17
10510;BME280;5303;53.266;10.410;2023-04-02T14:13:21;102349.59;;;16.46;40.32
10510;BME280;5303;53.266;10.410;2023-04-02T14:23:35;102349.03;;;17.54;38.50
10510;BME280;5303;53.266;10.410;2023-04-02T14:26:26;102357.69;;;17.11;38.43
10510;BME280;5303;53.266;10.410;2023-04-02T14:29:10;102371.97;;;16.26;38.78
10510;BME280;5303;53.266;10.410;2023-04-02T14:37:51;102376.25;;;16.21;39.90
10510;BME280;5303;53.266;10.410;2023-04-02T14:40:28;102367.28;;;16.76;40.18
10510;BME280;5303;53.266;10.410;2023-04-02T14:43:06;102365.38;;;16.68;40.41
10510;BME280;5303;53.266;10.410;2023-04-02T14:48:29;102392.41;;;16.07;41.27
10510;BME280;5303;53.266;10.410;2023-04-02T14:51:03;102374.00;;;17.21;39.76
10510;BME280;5303;53.266;10.410;2023-04-02T14:53:58;102386.72;;;16.34;41.08
10510;BME280;5303;53.266;10.410;2023-04-02T14:56:25;102390.19;;;16.03;42.00
10510;BME280;5303;53.266;10.410;2023-04-02T14:59:01;102387.91;;;16.64;42.40
10510;BME280;5303;53.266;10.410;2023-04-02T15:01:35;102384.81;;;16.67;42.53
10510;BME280;5303;53.266;10.410;2023-04-02T15:04:07;102409.59;;;15.34;44.35
10510;BME280;5303;53.266;10.410;2023-04-02T15:06:37;102417.59;;;15.28;43.93
10510;BME280;5303;53.266;10.410;2023-04-02T15:09:09;102416.16;;;15.07;43.52
10510;BME280;5303;53.266;10.410;2023-04-02T15:11:43;102421.97;;;15.97;43.41
10510;BME280;5303;53.266;10.410;2023-04-02T15:14:26;102418.34;;;15.97;43.05
10510;BME280;5303;53.266;10.410;2023-04-02T15:16:52;102399.22;;;16.69;42.33